sensor_id;sensor_type;location;lat;lon;timestamp;P1;durP1;ratioP1;P2;durP2;ratioP2
39612;SDS011;25303;48.896;13.342;2023-11-18T00:05:30;6.47;;;3.70;;
39612;SDS011;25303;48.896;13.342;2023-11-18T00:15:33;4.28;;;2.22;;
39612;SDS011;25303;48.896;13.342;2023-11-18T00:25:37;4.28;;;2.13;;
39612;SDS011;25303;48.896;13.342;2023-11-18T00:35:41;4.38;;;2.63;;
39612;SDS011;25303;48.896;13.342;2023-11-18T00:45:46;2.70;;;1.40;;
39612;SDS011;25303;48.896;13.342;2023-11-18T00:55:49;1.95;;;1.08;;
39612;SDS011;25303;48.896;13.342;2023-11-18T01:05:54;3.00;;;1.80;;
39612;SDS011;25303;48.896;13.342;2023-11-18T01:15:56;5.18;;;2.00;;
39612;SDS011;25303;48.896;13.342;2023-11-18T01:26:01;8.15;;;3.42;;
39612;SDS011;25303;48.896;13.342;2023-11-18T01:36:08;4.10;;;2.05;;
39612;SDS011;25303;48.896;13.342;2023-11-18T01:46:13;3.40;;;1.92;;
39612;SDS011;25303;48.896;13.342;2023-11-18T01:56:16;2.35;;;1.45;;
39612;SDS011;25303;48.896;13.342;2023-11-18T02:06:21;3.88;;;2.10;;
39612;SDS011;25303;48.896;13.342;2023-11-18T02:16:24;5.35;;;2.90;;
39612;SDS011;25303;48.896;13.342;2023-11-18T02:26:30;4.60;;;2.60;;
39612;SDS011;25303;48.896;13.342;2023-11-18T02:36:36;4.60;;;2.35;;
39612;SDS011;25303;48.896;13.342;2023-11-18T02:46:48;5.28;;;2.35;;
39612;SDS011;25303;48.896;13.342;2023-11-18T02:56:51;4.82;;;2.35;;
39612;SDS011;25303;48.896;13.342;2023-11-18T03:06:55;6.22;;;2.50;;
39612;SDS011;25303;48.896;13.342;2023-11-18T03:16:58;5.72;;;3.15;;
39612;SDS011;25303;48.896;13.342;2023-11-18T03:27:04;3.75;;;1.77;;
39612;SDS011;25303;48.896;13.342;2023-11-18T03:37:07;4.05;;;1.70;;
39612;SDS011;25303;48.896;13.342;2023-11-18T03:47:12;1.60;;;0.95;;
39612;SDS011;25303;48.896;13.342;2023-11-18T03:57:15;1.70;;;1.13;;
39612;SDS011;25303;48.896;13.342;2023-11-18T04:07:20;2.00;;;0.80;;
39612;SDS011;25303;48.896;13.342;2023-11-18T04:17:23;1.40;;;0.98;;
39612;SDS011;25303;48.896;13.342;2023-11-18T04:27:30;2.75;;;1.40;;
39612;SDS011;25303;48.896;13.342;2023-11-18T04:37:33;3.10;;;1.63;;
39612;SDS011;25303;48.896;13.342;2023-11-18T04:47:38;3.25;;;1.00;;
39612;SDS011;25303;48.896;13.342;2023-11-18T04:57:43;2.90;;;1.30;;
39612;SDS011;25303;48.896;13.342;2023-11-18T05:07:47;2.15;;;1.40;;
39612;SDS011;25303;48.896;13.342;2023-11-18T05:17:50;2.17;;;1.25;;
39612;SDS011;25303;48.896;13.342;2023-11-18T05:27:55;1.70;;;1.10;;
39612;SDS011;25303;48.896;13.342;2023-11-18T05:37:57;2.28;;;1.38;;
39612;SDS011;25303;48.896;13.342;2023-11-18T05:48:02;3.53;;;1.17;;
39612;SDS011;25303;48.896;13.342;2023-11-18T05:58:05;2.83;;;1.65;;
39612;SDS011;25303;48.896;13.342;2023-11-18T06:08:11;2.03;;;1.20;;
39612;SDS011;25303;48.896;13.342;2023-11-18T06:18:15;3.15;;;1.50;;
39612;SDS011;25303;48.896;13.342;2023-11-18T06:28:20;6.20;;;2.03;;
39612;SDS011;25303;48.896;13.342;2023-11-18T06:38:22;5.63;;;1.88;;
39612;SDS011;25303;48.896;13.342;2023-11-18T06:48:27;4.53;;;2.13;;
39612;SDS011;25303;48.896;13.342;2023-11-18T06:58:30;10.43;;;3.20;;
39612;SDS011;25303;48.896;13.342;2023-11-18T07:08:35;7.35;;;2.70;;
39612;SDS011;25303;48.896;13.342;2023-11-18T07:18:38;4.75;;;1.73;;
39612;SDS011;25303;48.896;13.342;2023-11-18T07:28:42;4.50;;;2.20;;
39612;SDS011;25303;48.896;13.342;2023-11-18T07:38:46;30.65;;;12.13;;
39612;SDS011;25303;48.896;13.342;2023-11-18T07:48:51;21.02;;;8.02;;
39612;SDS011;25303;48.896;13.342;2023-11-18T07:58:55;9.13;;;4.00;;
39612;SDS011;25303;48.896;13.342;2023-11-18T08:08:59;4.35;;;2.33;;
39612;SDS011;25303;48.896;13.342;2023-11-18T08:19:02;4.47;;;2.20;;
39612;SDS011;25303;48.896;13.342;2023-11-18T08:29:08;2.95;;;1.50;;
39612;SDS011;25303;48.896;13.342;2023-11-18T08:39:12;3.28;;;1.95;;
39612;SDS011;25303;48.896;13.342;2023-11-18T08:49:19;4.88;;;2.60;;
39612;SDS011;25303;48.896;13.342;2023-11-18T08:59:23;6.30;;;2.90;;
39612;SDS011;25303;48.896;13.342;2023-11-18T09:09:28;5.43;;;2.30;;
39612;SDS011;25303;48.896;13.342;2023-11-18T09:19:33;6.22;;;2.92;;
39612;SDS011;25303;48.896;13.342;2023-11-18T09:29:38;5.93;;;3.05;;
39612;SDS011;25303;48.896;13.342;2023-11-18T09:39:42;3.70;;;2.08;;
39612;SDS011;25303;48.896;13.342;2023-11-18T09:49:49;4.25;;;2.40;;
39612;SDS011;25303;48.896;13.342;2023-11-18T10:00:00;4.47;;;2.40;;
39612;SDS011;25303;48.896;13.342;2023-11-18T10:10:14;3.53;;;1.92;;
39612;SDS011;25303;48.896;13.342;2023-11-18T10:20:17;3.40;;;1.95;;
39612;SDS011;25303;48.896;13.342;2023-11-18T10:30:23;2.63;;;1.42;;
39612;SDS011;25303;48.896;13.342;2023-11-18T10:40:27;3.83;;;1.30;;
39612;SDS011;25303;48.896;13.342;2023-11-18T10:50:31;3.88;;;0.70;;
39612;SDS011;25303;48.896;13.342;2023-11-18T11:00:45;0.93;;;0.60;;
39612;SDS011;25303;48.896;13.342;2023-11-18T11:10:51;0.70;;;0.50;;
39612;SDS011;25303;48.896;13.342;2023-11-18T11:20:59;2.60;;;1.17;;
39612;SDS011;25303;48.896;13.342;2023-11-18T11:31:17;1.90;;;1.00;;
39612;SDS011;25303;48.896;13.342;2023-11-18T11:41:24;2.80;;;1.55;;
39612;SDS011;25303;48.896;13.342;2023-11-18T11:51:30;2.15;;;1.10;;
39612;SDS011;25303;48.896;13.342;2023-11-18T12:01:40;1.38;;;0.70;;
39612;SDS011;25303;48.896;13.342;2023-11-18T12:11:50;1.77;;;1.13;;
39612;SDS011;25303;48.896;13.342;2023-11-18T12:21:56;1.70;;;0.90;;
39612;SDS011;25303;48.896;13.342;2023-11-18T12:32:03;1.73;;;0.88;;
39612;SDS011;25303;48.896;13.342;2023-11-18T12:42:07;1.73;;;0.73;;
39612;SDS011;25303;48.896;13.342;2023-11-18T12:52:18;0.80;;;0.50;;
39612;SDS011;25303;48.896;13.342;2023-11-18T13:02:22;2.72;;;0.90;;
39612;SDS011;25303;48.896;13.342;2023-11-18T13:12:27;2.60;;;0.60;;
39612;SDS011;25303;48.896;13.342;2023-11-18T13:22:30;1.70;;;0.90;;
39612;SDS011;25303;48.896;13.342;2023-11-18T13:32:49;1.73;;;0.90;;
39612;SDS011;25303;48.896;13.342;2023-11-18T13:43:02;2.00;;;1.42;;
39612;SDS011;25303;48.896;13.342;2023-11-18T13:53:08;3.28;;;1.08;;
39612;SDS011;25303;48.896;13.342;2023-11-18T14:03:12;2.47;;;1.10;;
39612;SDS011;25303;48.896;13.342;2023-11-18T14:13:18;3.10;;;1.20;;
39612;SDS011;25303;48.896;13.342;2023-11-18T14:23:23;2.22;;;1.17;;
39612;SDS011;25303;48.896;13.342;2023-11-18T14:33:28;2.17;;;1.20;;
39612;SDS011;25303;48.896;13.342;2023-11-18T14:43:31;2.05;;;1.25;;
39612;SDS011;25303;48.896;13.342;2023-11-18T14:53:36;2.33;;;1.60;;
39612;SDS011;25303;48.896;13.342;2023-11-18T15:03:39;2.63;;;1.08;;
39612;SDS011;25303;48.896;13.342;2023-11-18T15:13:45;3.58;;;1.58;;
39612;SDS011;25303;48.896;13.342;2023-11-18T15:23:48;3.30;;;1.50;;
39612;SDS011;25303;48.896;13.342;2023-11-18T15:33:53;4.43;;;1.67;;
39612;SDS011;25303;48.896;13.342;2023-11-18T15:43:56;6.00;;;2.85;;
39612;SDS011;25303;48.896;13.342;2023-11-18T15:54:00;4.45;;;2.65;;
39612;SDS011;25303;48.896;13.342;2023-11-18T16:04:03;6.53;;;3.30;;
39612;SDS011;25303;48.896;13.342;2023-11-18T16:14:09;10.75;;;5.68;;
39612;SDS011;25303;48.896;13.342;2023-11-18T16:24:13;8.75;;;4.43;;
39612;SDS011;25303;48.896;13.342;2023-11-18T16:34:17;7.45;;;4.00;;
39612;SDS011;25303;48.896;13.342;2023-11-18T16:44:21;7.55;;;4.00;;
39612;SDS011;25303;48.896;13.342;2023-11-18T16:54:25;11.18;;;5.25;;
39612;SDS011;25303;48.896;13.342;2023-11-18T17:04:41;9.05;;;4.25;;
39612;SDS011;25303;48.896;13.342;2023-11-18T17:14:45;11.38;;;4.45;;
39612;SDS011;25303;48.896;13.342;2023-11-18T17:24:50;7.38;;;3.75;;
39612;SDS011;25303;48.896;13.342;2023-11-18T17:34:57;7.13;;;3.67;;
39612;SDS011;25303;48.896;13.342;2023-11-18T17:45:01;11.00;;;4.88;;
39612;SDS011;25303;48.896;13.342;2023-11-18T17:55:08;7.25;;;3.60;;
39612;SDS011;25303;48.896;13.342;2023-11-18T18:05:11;7.85;;;3.80;;
39612;SDS011;25303;48.896;13.342;2023-11-18T18:15:16;9.43;;;4.05;;
39612;SDS011;25303;48.896;13.342;2023-11-18T18:25:19;7.90;;;3.60;;
39612;SDS011;25303;48.896;13.342;2023-11-18T18:35:23;9.48;;;4.30;;
39612;SDS011;25303;48.896;13.342;2023-11-18T18:45:27;12.23;;;5.40;;
39612;SDS011;25303;48.896;13.342;2023-11-18T18:55:33;9.38;;;4.68;;
39612;SDS011;25303;48.896;13.342;2023-11-18T19:05:38;21.60;;;10.23;;
39612;SDS011;25303;48.896;13.342;2023-11-18T19:15:42;20.60;;;7.00;;
39612;SDS011;25303;48.896;13.342;2023-11-18T19:25:45;11.50;;;5.13;;
39612;SDS011;25303;48.896;13.342;2023-11-18T19:35:50;14.80;;;5.88;;
39612;SDS011;25303;48.896;13.342;2023-11-18T19:45:56;9.17;;;4.90;;
39612;SDS011;25303;48.896;13.342;2023-11-18T19:56:00;6.43;;;3.55;;
39612;SDS011;25303;48.896;13.342;2023-11-18T20:06:04;13.82;;;6.63;;
39612;SDS011;25303;48.896;13.342;2023-11-18T20:16:10;11.82;;;5.88;;
39612;SDS011;25303;48.896;13.342;2023-11-18T20:26:13;11.43;;;5.25;;
39612;SDS011;25303;48.896;13.342;2023-11-18T20:36:17;9.02;;;4.50;;
39612;SDS011;25303;48.896;13.342;2023-11-18T20:46:20;8.38;;;4.47;;
39612;SDS011;25303;48.896;13.342;2023-11-18T20:56:25;7.32;;;4.32;;
39612;SDS011;25303;48.896;13.342;2023-11-18T21:06:28;7.30;;;3.65;;
39612;SDS011;25303;48.896;13.342;2023-11-18T21:16:33;8.00;;;3.83;;
39612;SDS011;25303;48.896;13.342;2023-11-18T21:26:37;7.35;;;4.25;;
39612;SDS011;25303;48.896;13.342;2023-11-18T21:36:42;8.82;;;4.72;;
39612;SDS011;25303;48.896;13.342;2023-11-18T21:46:45;8.82;;;4.70;;
39612;SDS011;25303;48.896;13.342;2023-11-18T21:56:49;8.55;;;4.78;;
39612;SDS011;25303;48.896;13.342;2023-11-18T22:06:52;12.27;;;6.05;;
39612;SDS011;25303;48.896;13.342;2023-11-18T22:16:57;8.27;;;4.82;;
39612;SDS011;25303;48.896;13.342;2023-11-18T22:27:01;9.85;;;5.65;;
39612;SDS011;25303;48.896;13.342;2023-11-18T22:37:05;8.68;;;4.18;;
39612;SDS011;25303;48.896;13.342;2023-11-18T22:47:08;6.13;;;2.80;;
39612;SDS011;25303;48.896;13.342;2023-11-18T22:57:12;17.95;;;3.53;;
39612;SDS011;25303;48.896;13.342;2023-11-18T23:07:15;5.43;;;2.78;;
39612;SDS011;25303;48.896;13.342;2023-11-18T23:17:20;8.20;;;1.70;;
39612;SDS011;25303;48.896;13.342;2023-11-18T23:27:24;2.53;;;1.50;;
39612;SDS011;25303;48.896;13.342;2023-11-18T23:37:30;3.75;;;1.42;;
39612;SDS011;25303;48.896;13.342;2023-11-18T23:47:34;15.38;;;1.75;;
39612;SDS011;25303;48.896;13.342;2023-11-18T23:57:38;4.82;;;1.48;;
